createdAt,value
2023-05-11T00:00:52.197Z,9.60
2023-05-11T00:03:19.077Z,9.60
2023-05-11T00:05:49.371Z,9.50
2023-05-11T00:08:17.329Z,9.60
2023-05-11T00:10:47.872Z,9.70
2023-05-11T00:13:15.224Z,9.60
2023-05-11T00:15:42.052Z,9.60
2023-05-11T00:18:09.010Z,9.50
2023-05-11T00:20:35.944Z,9.40
2023-05-11T00:23:02.682Z,9.30
2023-05-11T00:25:29.341Z,9.20
2023-05-11T00:27:56.069Z,9.20
2023-05-11T00:30:22.800Z,9.10
2023-05-11T00:32:52.145Z,9.10
2023-05-11T00:35:19.299Z,9.10
2023-05-11T00:37:46.035Z,9.10
2023-05-11T00:40:12.976Z,9.10
2023-05-11T00:42:39.701Z,9.10
2023-05-11T00:45:07.064Z,9.20
2023-05-11T00:47:33.853Z,9.20
2023-05-11T00:50:00.654Z,9.20
2023-05-11T00:52:27.961Z,9.20
2023-05-11T00:54:54.762Z,9.30
2023-05-11T00:57:21.649Z,9.20
2023-05-11T00:59:49.410Z,9.10
2023-05-11T01:02:16.679Z,9.00
2023-05-11T01:04:44.328Z,9.00
2023-05-11T01:07:34.768Z,8.90
2023-05-11T01:10:33.174Z,8.90
2023-05-11T01:13:02.753Z,8.90
2023-05-11T01:15:47.834Z,8.80
2023-05-11T01:18:35.145Z,8.80
2023-05-11T01:21:09.465Z,8.90
2023-05-11T01:23:56.262Z,8.90
2023-05-11T01:26:37.322Z,8.90
2023-05-11T01:29:06.760Z,9.00
2023-05-11T01:31:34.847Z,9.00
2023-05-11T01:34:05.020Z,9.00
2023-05-11T01:36:42.752Z,9.00
2023-05-11T01:39:12.516Z,9.00
2023-05-11T01:41:41.914Z,9.00
2023-05-11T01:44:10.712Z,9.00
2023-05-11T01:46:38.607Z,9.10
2023-05-11T01:49:09.776Z,9.10
2023-05-11T01:51:38.441Z,9.00
2023-05-11T01:54:09.349Z,9.00
2023-05-11T01:56:37.736Z,9.00
2023-05-11T01:59:05.492Z,8.90
2023-05-11T02:01:35.769Z,8.90
2023-05-11T02:04:04.509Z,9.00
2023-05-11T02:06:35.362Z,9.00
2023-05-11T02:09:03.345Z,8.90
2023-05-11T02:11:33.626Z,8.90
2023-05-11T02:14:01.845Z,8.90
2023-05-11T02:16:29.414Z,9.00
2023-05-11T02:18:57.538Z,9.00
2023-05-11T02:21:26.489Z,9.10
2023-05-11T02:23:54.125Z,9.20
2023-05-11T02:26:21.836Z,9.30
2023-05-11T02:28:49.752Z,9.40
2023-05-11T02:31:30.136Z,9.40
2023-05-11T02:34:03.775Z,9.50
2023-05-11T02:36:33.485Z,9.60
2023-05-11T02:39:06.960Z,9.60
2023-05-11T02:41:41.659Z,9.60
2023-05-11T02:44:12.091Z,9.60
2023-05-11T02:46:40.311Z,9.60
2023-05-11T02:49:10.124Z,9.60
2023-05-11T02:51:39.313Z,9.60
2023-05-11T02:54:10.690Z,9.70
2023-05-11T02:56:41.544Z,9.80
2023-05-11T02:59:08.860Z,9.80
2023-05-11T03:01:36.052Z,9.90
2023-05-11T03:04:05.854Z,9.90
2023-05-11T03:06:33.427Z,10.00
2023-05-11T03:09:02.069Z,10.00
2023-05-11T03:11:30.852Z,10.10
2023-05-11T03:13:58.594Z,10.10
2023-05-11T03:16:26.743Z,10.10
2023-05-11T03:18:55.611Z,10.20
2023-05-11T03:21:23.965Z,10.10
2023-05-11T03:23:51.054Z,10.20
2023-05-11T03:26:19.274Z,10.40
2023-05-11T03:28:48.185Z,10.40
2023-05-11T03:31:15.008Z,10.40
2023-05-11T03:33:41.918Z,10.40
2023-05-11T03:36:11.887Z,10.50
2023-05-11T03:38:39.835Z,10.60
2023-05-11T03:41:10.499Z,10.50
2023-05-11T03:43:39.051Z,10.50
2023-05-11T03:46:07.228Z,10.50
2023-05-11T03:48:34.487Z,10.50
2023-05-11T03:51:01.531Z,10.60
2023-05-11T03:53:28.388Z,10.50
2023-05-11T03:55:55.864Z,10.50
2023-05-11T03:58:23.390Z,10.40
2023-05-11T04:00:50.483Z,10.50
2023-05-11T04:03:18.298Z,10.60
2023-05-11T04:05:45.398Z,10.60
2023-05-11T04:08:13.209Z,10.70
2023-05-11T04:10:39.976Z,10.50
2023-05-11T04:13:06.804Z,10.40
2023-05-11T04:15:33.480Z,10.50
2023-05-11T04:18:00.370Z,10.50
2023-05-11T04:20:27.181Z,10.60
2023-05-11T04:22:54.559Z,10.50
2023-05-11T04:25:21.422Z,10.60
2023-05-11T04:27:48.141Z,10.60
2023-05-11T04:30:15.307Z,10.80
2023-05-11T04:32:42.129Z,10.90
2023-05-11T04:35:11.379Z,10.90
2023-05-11T04:37:41.467Z,11.00
2023-05-11T04:40:11.382Z,10.80
2023-05-11T04:42:42.934Z,10.80
2023-05-11T04:45:15.933Z,10.90
2023-05-11T04:47:44.102Z,11.00
2023-05-11T04:50:12.158Z,11.10
2023-05-11T04:52:40.129Z,11.20
2023-05-11T04:55:09.108Z,11.20
2023-05-11T04:57:39.010Z,11.20
2023-05-11T05:00:09.712Z,11.20
2023-05-11T05:02:37.411Z,11.10
2023-05-11T05:05:04.989Z,11.30
2023-05-11T05:07:32.565Z,11.40
2023-05-11T05:10:00.232Z,11.40
2023-05-11T05:12:27.663Z,11.50
2023-05-11T05:14:55.248Z,11.60
2023-05-11T05:17:22.305Z,11.60
2023-05-11T05:19:51.821Z,11.70
2023-05-11T05:22:20.337Z,11.80
2023-05-11T05:24:48.738Z,11.70
2023-05-11T05:27:16.156Z,11.60
2023-05-11T05:29:43.662Z,11.70
2023-05-11T05:32:11.722Z,11.80
2023-05-11T05:34:39.245Z,11.90
2023-05-11T05:37:07.820Z,11.90
2023-05-11T05:39:36.911Z,12.00
2023-05-11T05:42:04.724Z,12.00
2023-05-11T05:44:32.593Z,12.00
2023-05-11T05:47:01.190Z,11.70
2023-05-11T05:49:34.408Z,11.80
2023-05-11T05:52:04.239Z,11.70
2023-05-11T05:54:33.234Z,11.80
2023-05-11T05:57:02.096Z,11.80
2023-05-11T05:59:30.333Z,11.90
2023-05-11T06:01:58.832Z,11.70
2023-05-11T06:04:26.076Z,11.60
2023-05-11T06:06:57.112Z,11.70
2023-05-11T06:09:24.805Z,11.80
2023-05-11T06:11:54.841Z,11.90
2023-05-11T06:14:24.624Z,11.90
2023-05-11T06:16:54.659Z,11.90
2023-05-11T06:19:22.158Z,12.00
2023-05-11T06:21:53.402Z,11.90
2023-05-11T06:24:22.963Z,12.00
2023-05-11T06:26:54.682Z,12.00
2023-05-11T06:29:23.167Z,11.80
2023-05-11T06:31:54.121Z,11.90
2023-05-11T06:34:22.123Z,11.90
2023-05-11T06:36:50.488Z,12.10
2023-05-11T06:39:19.139Z,12.20
2023-05-11T06:41:48.019Z,12.30
2023-05-11T06:44:17.183Z,12.30
2023-05-11T06:46:45.363Z,12.40
2023-05-11T06:49:13.783Z,12.50
2023-05-11T06:51:43.187Z,12.70
2023-05-11T06:54:12.422Z,12.70
2023-05-11T06:56:41.385Z,12.70
2023-05-11T06:59:09.625Z,12.80
2023-05-11T07:01:38.170Z,13.00
2023-05-11T07:04:06.659Z,13.00
2023-05-11T07:06:42.512Z,13.20
2023-05-11T07:09:16.274Z,13.20
2023-05-11T07:11:46.170Z,13.30
2023-05-11T07:14:15.387Z,13.50
2023-05-11T07:20:43.340Z,13.60
2023-05-11T07:23:11.392Z,13.60
2023-05-11T07:25:38.148Z,13.70
2023-05-11T07:28:04.923Z,13.70
2023-05-11T07:30:31.757Z,13.60
2023-05-11T07:32:58.502Z,13.80
2023-05-11T07:35:25.198Z,13.90
2023-05-11T07:37:51.906Z,13.80
2023-05-11T07:40:18.947Z,14.00
2023-05-11T07:42:45.899Z,14.10
2023-05-11T07:45:12.675Z,14.20
2023-05-11T07:47:39.435Z,14.00
2023-05-11T07:50:07.231Z,14.30
2023-05-11T07:52:34.432Z,14.40
2023-05-11T07:55:01.266Z,14.50
2023-05-11T07:57:28.221Z,14.40
2023-05-11T07:59:54.857Z,14.50
2023-05-11T08:02:21.689Z,14.70
2023-05-11T08:04:48.436Z,14.70
2023-05-11T08:07:15.312Z,14.80
2023-05-11T08:09:42.783Z,15.00
2023-05-11T08:12:09.858Z,15.00
2023-05-11T08:14:37.593Z,15.10
2023-05-11T08:17:04.422Z,15.20
2023-05-11T08:19:31.128Z,15.30
2023-05-11T08:21:57.917Z,15.40
2023-05-11T08:24:24.628Z,15.40
2023-05-11T08:26:51.344Z,15.50
2023-05-11T08:29:18.074Z,15.40
2023-05-11T08:31:44.835Z,15.50
2023-05-11T08:34:19.074Z,15.30
2023-05-11T08:36:47.388Z,15.50
2023-05-11T08:39:14.230Z,15.60
2023-05-11T08:41:41.077Z,15.60
2023-05-11T08:44:09.217Z,15.60
2023-05-11T08:46:40.021Z,15.80
2023-05-11T08:49:08.650Z,15.60
2023-05-11T08:51:35.431Z,15.80
2023-05-11T08:54:04.384Z,15.70
2023-05-11T08:56:31.889Z,15.50
2023-05-11T08:58:59.017Z,15.80
2023-05-11T09:01:28.929Z,15.90
2023-05-11T09:03:56.925Z,15.90
2023-05-11T09:06:25.051Z,16.00
2023-05-11T09:08:52.886Z,16.00
2023-05-11T09:11:19.868Z,16.10
2023-05-11T09:13:47.092Z,16.10
2023-05-11T09:18:48.200Z,16.30
2023-05-11T09:21:15.046Z,16.20
2023-05-11T09:23:41.930Z,16.50
2023-05-11T09:26:15.226Z,16.10
2023-05-11T09:29:02.496Z,16.40
2023-05-11T09:31:35.609Z,16.50
2023-05-11T09:34:19.516Z,16.60
2023-05-11T09:36:50.787Z,16.70
2023-05-11T09:39:35.013Z,16.80
2023-05-11T09:42:18.872Z,16.60
2023-05-11T09:44:46.864Z,16.60
2023-05-11T09:47:22.496Z,16.80
2023-05-11T09:49:49.830Z,17.00
2023-05-11T09:52:18.657Z,16.90
2023-05-11T09:54:50.765Z,16.70
2023-05-11T09:57:31.157Z,17.00
2023-05-11T09:59:59.410Z,16.80
2023-05-11T10:02:28.394Z,17.10
2023-05-11T10:04:58.959Z,17.30
2023-05-11T10:07:27.871Z,17.50
2023-05-11T10:09:56.382Z,17.70
2023-05-11T10:12:25.600Z,17.80
2023-05-11T10:14:56.772Z,17.70
2023-05-11T10:17:25.134Z,17.90
2023-05-11T10:19:55.636Z,18.00
2023-05-11T10:22:23.217Z,18.00
2023-05-11T10:24:50.516Z,17.80
2023-05-11T10:27:21.053Z,17.80
2023-05-11T10:29:48.601Z,17.40
2023-05-11T10:32:17.802Z,17.10
2023-05-11T10:34:46.393Z,17.40
2023-05-11T10:37:15.239Z,17.50
2023-05-11T10:39:44.068Z,17.80
2023-05-11T10:42:42.527Z,18.00
2023-05-11T10:45:33.508Z,18.20
2023-05-11T10:48:14.233Z,18.10
2023-05-11T10:51:02.728Z,17.90
2023-05-11T10:53:35.252Z,17.80
2023-05-11T10:56:33.522Z,17.70
2023-05-11T10:59:22.413Z,18.10
2023-05-11T11:01:58.895Z,18.20
2023-05-11T11:04:26.911Z,18.30
2023-05-11T11:07:06.330Z,18.30
2023-05-11T11:09:59.206Z,18.20
2023-05-11T11:12:28.701Z,18.20
2023-05-11T11:15:02.167Z,18.10
2023-05-11T11:17:37.996Z,17.40
2023-05-11T11:20:09.974Z,17.10
2023-05-11T11:22:41.084Z,17.50
2023-05-11T11:25:12.049Z,17.60
2023-05-11T11:27:41.765Z,17.60
2023-05-11T11:30:23.046Z,17.80
2023-05-11T11:32:51.997Z,18.30
2023-05-11T11:35:43.858Z,18.20
2023-05-11T11:38:18.498Z,17.90
2023-05-11T11:40:53.100Z,17.70
2023-05-11T11:43:28.756Z,18.00
2023-05-11T11:46:02.890Z,18.10
2023-05-11T11:48:31.409Z,18.30
2023-05-11T11:51:10.377Z,18.60
2023-05-11T11:53:37.360Z,18.30
2023-05-11T11:56:05.800Z,18.70
2023-05-11T11:58:41.873Z,18.90
2023-05-11T12:01:09.298Z,19.20
2023-05-11T12:03:37.544Z,19.60
2023-05-11T12:06:09.113Z,19.40
2023-05-11T12:08:37.251Z,20.00
2023-05-11T12:11:05.718Z,20.20
2023-05-11T12:13:33.455Z,20.30
2023-05-11T12:16:17.041Z,20.40
2023-05-11T12:18:53.708Z,20.60
2023-05-11T12:21:27.668Z,20.50
2023-05-11T12:24:02.499Z,20.40
2023-05-11T12:26:30.797Z,20.20
2023-05-11T12:29:07.913Z,19.90
2023-05-11T12:31:41.745Z,19.50
2023-05-11T12:34:16.056Z,19.60
2023-05-11T12:36:44.371Z,19.80
2023-05-11T12:39:21.603Z,19.80
2023-05-11T12:41:49.620Z,19.80
2023-05-11T12:44:17.458Z,19.90
2023-05-11T12:46:49.190Z,20.00
2023-05-11T12:52:00.893Z,20.10
2023-05-11T12:54:28.650Z,20.40
2023-05-11T12:56:55.916Z,20.30
2023-05-11T12:59:37.564Z,20.10
2023-05-11T13:02:18.596Z,20.10
2023-05-11T13:04:46.983Z,20.30
2023-05-11T13:07:23.233Z,20.30
2023-05-11T13:10:00.794Z,20.10
2023-05-11T13:12:31.647Z,20.10
2023-05-11T13:15:12.514Z,20.00
2023-05-11T13:17:41.364Z,19.30
2023-05-11T13:20:21.001Z,19.40
2023-05-11T13:22:48.833Z,19.50
2023-05-11T13:25:18.366Z,19.30
2023-05-11T13:27:45.505Z,19.10
2023-05-11T13:30:12.755Z,18.90
2023-05-11T13:32:39.703Z,18.50
2023-05-11T13:35:06.948Z,17.80
2023-05-11T13:37:33.655Z,17.30
2023-05-11T13:40:00.827Z,16.40
2023-05-11T13:42:28.535Z,15.90
2023-05-11T13:44:55.281Z,15.90
2023-05-11T13:47:22.180Z,15.50
2023-05-11T13:49:48.919Z,14.50
2023-05-11T13:52:15.794Z,13.30
2023-05-11T13:54:42.450Z,12.70
2023-05-11T13:57:09.219Z,12.60
2023-05-11T13:59:35.979Z,12.50
2023-05-11T14:02:02.858Z,12.50
2023-05-11T14:04:29.587Z,12.50
2023-05-11T14:06:56.545Z,12.50
2023-05-11T14:09:23.529Z,12.60
2023-05-11T14:11:50.694Z,12.90
2023-05-11T14:14:17.711Z,13.10
2023-05-11T14:16:44.720Z,13.20
2023-05-11T14:19:11.651Z,13.20
2023-05-11T14:21:38.557Z,13.20
2023-05-11T14:24:12.002Z,13.30
2023-05-11T14:26:40.074Z,13.30
2023-05-11T14:29:06.945Z,13.30
2023-05-11T14:31:35.399Z,13.50
2023-05-11T14:34:03.611Z,13.60
2023-05-11T14:36:31.625Z,13.70
2023-05-11T14:38:58.361Z,13.70
2023-05-11T14:41:25.511Z,13.80
2023-05-11T14:43:52.226Z,13.90
2023-05-11T14:46:19.449Z,14.10
2023-05-11T14:48:46.196Z,14.30
2023-05-11T14:51:12.835Z,14.40
2023-05-11T14:53:39.577Z,14.50
2023-05-11T14:56:07.038Z,14.60
2023-05-11T14:58:33.787Z,14.70
2023-05-11T15:01:00.785Z,14.80
2023-05-11T15:03:27.702Z,14.90
2023-05-11T15:05:54.402Z,15.00
2023-05-11T15:08:29.475Z,15.10
2023-05-11T15:10:57.835Z,15.10
2023-05-11T15:13:24.722Z,14.70
2023-05-11T15:15:51.702Z,14.50
2023-05-11T15:18:18.973Z,14.40
2023-05-11T15:20:46.676Z,14.40
2023-05-11T15:23:16.626Z,14.60
2023-05-11T15:25:46.963Z,14.70
2023-05-11T15:28:14.161Z,14.70
2023-05-11T15:30:41.990Z,14.80
2023-05-11T15:33:09.848Z,14.80
2023-05-11T15:35:36.973Z,15.00
2023-05-11T15:38:04.213Z,15.00
2023-05-11T15:40:30.929Z,15.00
2023-05-11T15:42:58.813Z,15.00
2023-05-11T15:45:26.164Z,15.10
2023-05-11T15:47:54.037Z,15.20
2023-05-11T15:50:21.479Z,15.20
2023-05-11T15:52:48.330Z,15.20
2023-05-11T15:55:15.107Z,15.10
2023-05-11T15:57:41.877Z,14.50
2023-05-11T16:00:11.134Z,14.40
2023-05-11T16:02:38.070Z,14.30
2023-05-11T16:05:05.108Z,14.40
2023-05-11T16:07:31.835Z,14.70
2023-05-11T16:09:58.593Z,14.90
2023-05-11T16:12:25.924Z,14.50
2023-05-11T16:14:52.563Z,14.70
2023-05-11T16:17:19.294Z,14.80
2023-05-11T16:19:45.992Z,14.90
2023-05-11T16:22:13.130Z,14.90
2023-05-11T16:24:39.785Z,14.90
2023-05-11T16:27:06.465Z,14.70
2023-05-11T16:29:33.479Z,14.90
2023-05-11T16:32:00.433Z,14.90
2023-05-11T16:34:27.475Z,14.90
2023-05-11T16:36:54.503Z,14.90
2023-05-11T16:39:21.984Z,15.00
2023-05-11T16:41:48.648Z,14.90
2023-05-11T16:44:16.307Z,14.90
2023-05-11T16:46:42.982Z,15.00
2023-05-11T16:49:09.644Z,15.00
2023-05-11T16:51:36.291Z,14.90
2023-05-11T16:54:02.980Z,14.90
2023-05-11T16:56:29.628Z,15.00
2023-05-11T16:58:56.296Z,15.00
2023-05-11T17:01:23.018Z,14.80
2023-05-11T17:03:49.753Z,14.80
2023-05-11T17:06:20.781Z,14.80
2023-05-11T17:08:47.772Z,14.90
2023-05-11T17:11:14.560Z,15.00
2023-05-11T17:13:41.297Z,14.50
2023-05-11T17:16:07.983Z,14.80
2023-05-11T17:18:34.952Z,14.90
2023-05-11T17:21:01.687Z,14.90
2023-05-11T17:23:28.554Z,14.80
2023-05-11T17:25:55.358Z,14.80
2023-05-11T17:28:22.163Z,14.80
2023-05-11T17:30:52.682Z,14.70
2023-05-11T17:33:19.956Z,14.70
2023-05-11T17:35:46.666Z,14.40
2023-05-11T17:38:13.350Z,14.00
2023-05-11T17:40:40.006Z,14.20
2023-05-11T17:43:06.909Z,14.30
2023-05-11T17:45:34.039Z,14.20
2023-05-11T17:48:00.881Z,14.20
2023-05-11T17:50:27.864Z,14.20
2023-05-11T17:52:54.580Z,14.20
2023-05-11T17:55:21.583Z,14.20
2023-05-11T17:57:48.791Z,14.20
2023-05-11T18:00:15.789Z,14.00
2023-05-11T18:02:42.578Z,13.70
2023-05-11T18:05:09.529Z,13.60
2023-05-11T18:07:36.304Z,13.60
2023-05-11T18:10:03.457Z,13.70
2023-05-11T18:12:32.093Z,13.70
2023-05-11T18:14:59.877Z,13.80
2023-05-11T18:17:27.046Z,13.90
2023-05-11T18:19:53.768Z,13.90
2023-05-11T18:22:20.445Z,13.80
2023-05-11T18:24:47.085Z,13.80
2023-05-11T18:27:13.716Z,13.80
2023-05-11T18:29:42.658Z,13.80
2023-05-11T18:32:09.349Z,13.80
2023-05-11T18:34:36.152Z,13.80
2023-05-11T18:37:02.990Z,13.80
2023-05-11T18:39:29.719Z,13.90
2023-05-11T18:42:00.840Z,13.80
2023-05-11T18:44:28.099Z,13.60
2023-05-11T18:46:54.802Z,13.70
2023-05-11T18:49:21.954Z,13.70
2023-05-11T18:51:49.110Z,13.70
2023-05-11T18:54:15.799Z,13.30
2023-05-11T18:56:42.662Z,13.40
2023-05-11T18:59:09.327Z,13.40
2023-05-11T19:01:47.109Z,13.50
2023-05-11T19:04:17.620Z,13.50
2023-05-11T19:06:44.289Z,13.50
2023-05-11T19:09:11.063Z,13.50
2023-05-11T19:11:37.942Z,13.40
2023-05-11T19:14:04.793Z,13.40
2023-05-11T19:16:32.962Z,13.30
2023-05-11T19:18:59.833Z,13.30
2023-05-11T19:21:26.660Z,13.30
2023-05-11T19:23:53.405Z,13.30
2023-05-11T19:26:20.082Z,13.30
2023-05-11T19:28:46.740Z,13.30
2023-05-11T19:31:13.376Z,13.20
2023-05-11T19:33:40.031Z,13.20
2023-05-11T19:36:07.201Z,13.20
2023-05-11T19:38:35.800Z,13.10
2023-05-11T19:41:03.099Z,13.20
2023-05-11T19:43:29.737Z,13.20
2023-05-11T19:45:56.514Z,13.20
2023-05-11T19:48:23.255Z,13.30
2023-05-11T19:50:49.960Z,13.20
2023-05-11T19:53:16.905Z,13.20
2023-05-11T19:55:45.403Z,13.10
2023-05-11T19:58:14.410Z,12.70
2023-05-11T20:00:41.307Z,12.50
2023-05-11T20:03:08.465Z,12.60
2023-05-11T20:05:35.225Z,12.60
2023-05-11T20:08:02.276Z,12.70
2023-05-11T20:10:29.050Z,12.80
2023-05-11T20:12:56.804Z,12.80
2023-05-11T20:15:23.476Z,12.80
2023-05-11T20:17:50.861Z,12.80
2023-05-11T20:20:17.953Z,12.90
2023-05-11T20:22:44.740Z,12.90
2023-05-11T20:25:18.385Z,12.90
2023-05-11T20:27:46.426Z,12.90
2023-05-11T20:30:13.647Z,12.80
2023-05-11T20:35:28.017Z,12.80
2023-05-11T20:37:55.107Z,12.60
2023-05-11T20:40:22.038Z,12.50
2023-05-11T20:42:48.745Z,12.50
2023-05-11T20:45:15.470Z,12.40
2023-05-11T20:47:42.599Z,12.40
2023-05-11T20:50:10.104Z,12.30
2023-05-11T20:52:37.315Z,12.30
2023-05-11T20:55:04.358Z,12.30
2023-05-11T20:57:31.069Z,12.30
2023-05-11T21:02:28.308Z,12.30
2023-05-11T21:05:01.562Z,12.30
2023-05-11T21:07:29.338Z,12.30
2023-05-11T21:09:56.049Z,12.20
2023-05-11T21:12:22.750Z,12.20
2023-05-11T21:14:49.383Z,12.20
2023-05-11T21:17:16.191Z,12.20
2023-05-11T21:19:42.862Z,12.20
2023-05-11T21:22:09.575Z,12.20
2023-05-11T21:24:37.661Z,12.20
2023-05-11T21:27:04.561Z,12.20
2023-05-11T21:29:31.342Z,12.20
2023-05-11T21:31:58.000Z,12.10
2023-05-11T21:34:24.783Z,12.10
2023-05-11T21:36:51.452Z,12.00
2023-05-11T21:39:18.129Z,11.90
2023-05-11T21:41:44.801Z,12.00
2023-05-11T21:44:11.576Z,11.90
2023-05-11T21:46:38.357Z,12.00
2023-05-11T21:49:05.063Z,12.00
2023-05-11T21:51:32.983Z,12.00
2023-05-11T21:54:00.172Z,11.90
2023-05-11T21:56:27.529Z,11.80
2023-05-11T21:58:54.219Z,11.80
2023-05-11T22:01:20.986Z,11.90
2023-05-11T22:03:47.798Z,11.90
2023-05-11T22:06:14.575Z,11.90
2023-05-11T22:08:41.247Z,11.90
2023-05-11T22:11:07.892Z,11.90
2023-05-11T22:13:34.796Z,11.80
2023-05-11T22:16:01.540Z,11.90
2023-05-11T22:18:28.312Z,11.90
2023-05-11T22:20:54.973Z,11.90
2023-05-11T22:23:21.720Z,11.90
2023-05-11T22:25:48.405Z,11.90
2023-05-11T22:28:15.084Z,11.90
2023-05-11T22:30:41.853Z,11.90
2023-05-11T22:33:08.478Z,11.80
2023-05-11T22:35:35.152Z,11.80
2023-05-11T22:38:02.031Z,11.70
2023-05-11T22:40:28.718Z,11.60
2023-05-11T22:42:55.363Z,11.60
2023-05-11T22:45:22.152Z,11.60
2023-05-11T22:47:48.974Z,11.60
2023-05-11T22:50:15.724Z,11.60
2023-05-11T22:52:42.411Z,11.60
2023-05-11T22:55:09.550Z,11.60
2023-05-11T22:57:36.205Z,11.50
2023-05-11T23:00:03.890Z,11.50
2023-05-11T23:02:33.290Z,11.50
2023-05-11T23:05:00.056Z,11.50
2023-05-11T23:07:26.912Z,11.40
2023-05-11T23:09:53.563Z,11.40
2023-05-11T23:12:20.315Z,11.40
2023-05-11T23:14:47.128Z,11.40
2023-05-11T23:17:13.958Z,11.50
2023-05-11T23:19:40.709Z,11.50
2023-05-11T23:22:07.578Z,11.50
2023-05-11T23:24:34.399Z,11.60
2023-05-11T23:27:01.431Z,11.50
2023-05-11T23:29:28.168Z,11.60
2023-05-11T23:31:55.889Z,11.60
2023-05-11T23:34:22.574Z,11.60
2023-05-11T23:36:49.341Z,11.60
2023-05-11T23:39:16.012Z,11.70
2023-05-11T23:41:42.662Z,11.70
2023-05-11T23:44:09.750Z,11.80
2023-05-11T23:46:36.450Z,11.80
2023-05-11T23:49:03.272Z,11.70
2023-05-11T23:51:29.998Z,11.70
2023-05-11T23:53:56.660Z,11.80
2023-05-11T23:56:23.324Z,11.80
2023-05-11T23:58:50.581Z,11.80
